createdAt,value
2023-12-04T00:01:48.189Z,-4.65
2023-12-04T00:04:14.991Z,-4.67
2023-12-04T00:06:44.661Z,-4.65
2023-12-04T00:09:11.233Z,-4.65
2023-12-04T00:11:37.653Z,-4.65
2023-12-04T00:14:04.216Z,-4.65
2023-12-04T00:16:30.675Z,-4.67
2023-12-04T00:18:57.422Z,-4.70
2023-12-04T00:21:23.961Z,-4.71
2023-12-04T00:23:50.554Z,-4.67
2023-12-04T00:26:17.131Z,-4.72
2023-12-04T00:28:43.616Z,-4.70
2023-12-04T00:31:11.777Z,-4.71
2023-12-04T00:33:38.387Z,-4.81
2023-12-04T00:36:05.316Z,-4.90
2023-12-04T00:38:31.780Z,-4.85
2023-12-04T00:40:58.886Z,-4.82
2023-12-04T00:43:25.718Z,-4.78
2023-12-04T00:45:52.251Z,-4.82
2023-12-04T00:48:18.894Z,-4.83
2023-12-04T00:50:45.394Z,-4.83
2023-12-04T00:53:12.202Z,-4.83
2023-12-04T00:55:38.628Z,-4.78
2023-12-04T00:58:05.162Z,-4.77
2023-12-04T01:00:31.776Z,-4.77
2023-12-04T01:02:58.678Z,-4.77
2023-12-04T01:05:25.130Z,-4.76
2023-12-04T01:07:52.430Z,-4.81
2023-12-04T01:10:18.998Z,-4.85
2023-12-04T01:12:45.660Z,-4.80
2023-12-04T01:15:12.139Z,-4.77
2023-12-04T01:17:38.711Z,-4.80
2023-12-04T01:20:05.974Z,-4.74
2023-12-04T01:22:32.691Z,-4.71
2023-12-04T01:24:59.179Z,-4.62
2023-12-04T01:27:25.646Z,-4.63
2023-12-04T01:29:54.539Z,-4.62
2023-12-04T01:32:20.970Z,-4.62
2023-12-04T01:34:47.503Z,-4.63
2023-12-04T01:37:14.042Z,-4.67
2023-12-04T01:39:40.694Z,-4.65
2023-12-04T01:42:07.276Z,-4.62
2023-12-04T01:44:33.778Z,-4.56
2023-12-04T01:47:00.408Z,-4.54
2023-12-04T01:49:27.579Z,-4.56
2023-12-04T01:51:54.445Z,-4.54
2023-12-04T01:54:21.578Z,-4.57
2023-12-04T01:56:48.148Z,-4.66
2023-12-04T01:59:15.266Z,-4.63
2023-12-04T02:01:41.742Z,-4.53
2023-12-04T02:04:08.802Z,-4.69
2023-12-04T02:06:35.826Z,-4.92
2023-12-04T02:09:02.651Z,-5.03
2023-12-04T02:11:29.238Z,-5.08
2023-12-04T02:13:56.747Z,-5.07
2023-12-04T02:16:26.598Z,-5.02
2023-12-04T02:18:54.365Z,-5.05
2023-12-04T02:21:20.897Z,-5.08
2023-12-04T02:23:52.126Z,-5.17
2023-12-04T02:26:23.367Z,-5.19
2023-12-04T02:28:56.261Z,-5.27
2023-12-04T02:31:24.948Z,-5.33
2023-12-04T02:33:53.880Z,-5.35
2023-12-04T02:36:21.640Z,-5.39
2023-12-04T02:38:48.392Z,-5.35
2023-12-04T02:41:15.093Z,-5.36
2023-12-04T02:43:41.541Z,-5.37
2023-12-04T02:46:08.198Z,-5.35
2023-12-04T02:48:34.780Z,-5.41
2023-12-04T02:51:01.421Z,-5.44
2023-12-04T02:53:27.867Z,-5.43
2023-12-04T02:55:54.583Z,-5.40
2023-12-04T02:58:21.038Z,-5.40
2023-12-04T03:00:47.606Z,-5.39
2023-12-04T03:03:14.253Z,-5.33
2023-12-04T03:05:40.724Z,-5.29
2023-12-04T03:08:07.326Z,-5.34
2023-12-04T03:10:33.840Z,-5.29
2023-12-04T03:13:00.866Z,-5.30
2023-12-04T03:15:29.661Z,-5.33
2023-12-04T03:17:56.381Z,-5.29
2023-12-04T03:20:22.898Z,-5.24
2023-12-04T03:22:49.360Z,-5.22
2023-12-04T03:25:15.842Z,-5.21
2023-12-04T03:27:42.404Z,-5.12
2023-12-04T03:30:09.387Z,-5.05
2023-12-04T03:32:35.903Z,-5.04
2023-12-04T03:35:02.501Z,-5.07
2023-12-04T03:37:28.981Z,-5.09
2023-12-04T03:39:55.492Z,-5.14
2023-12-04T03:42:21.897Z,-5.18
2023-12-04T03:44:48.365Z,-5.13
2023-12-04T03:47:14.847Z,-5.06
2023-12-04T03:49:41.348Z,-4.98
2023-12-04T03:52:07.878Z,-4.86
2023-12-04T03:54:34.346Z,-4.87
2023-12-04T03:57:00.815Z,-4.82
2023-12-04T03:59:27.280Z,-4.76
2023-12-04T04:01:54.015Z,-4.61
2023-12-04T04:04:20.575Z,-4.54
2023-12-04T04:06:47.224Z,-4.60
2023-12-04T04:09:13.829Z,-4.48
2023-12-04T04:11:41.148Z,-4.50
2023-12-04T04:14:07.593Z,-4.45
2023-12-04T04:16:34.021Z,-4.69
2023-12-04T04:19:00.580Z,-4.87
2023-12-04T04:21:27.062Z,-4.82
2023-12-04T04:23:54.661Z,-4.75
2023-12-04T04:26:21.121Z,-4.78
2023-12-04T04:28:47.987Z,-4.73
2023-12-04T04:31:14.538Z,-4.73
2023-12-04T04:33:41.033Z,-4.68
2023-12-04T04:36:10.536Z,-4.54
2023-12-04T04:38:36.958Z,-4.49
2023-12-04T04:41:03.569Z,-4.60
2023-12-04T04:43:32.642Z,-4.56
2023-12-04T04:46:03.397Z,-4.43
2023-12-04T04:48:29.827Z,-4.44
2023-12-04T04:50:56.346Z,-4.42
2023-12-04T04:53:22.809Z,-4.44
2023-12-04T04:55:49.781Z,-4.50
2023-12-04T04:58:17.898Z,-4.50
2023-12-04T05:00:48.482Z,-4.58
2023-12-04T05:03:15.103Z,-4.53
2023-12-04T05:05:41.770Z,-4.54
2023-12-04T05:08:08.282Z,-4.58
2023-12-04T05:10:34.722Z,-4.53
2023-12-04T05:13:01.198Z,-4.62
2023-12-04T05:15:27.777Z,-4.57
2023-12-04T05:17:54.694Z,-4.57
2023-12-04T05:20:21.258Z,-4.69
2023-12-04T05:22:47.934Z,-4.69
2023-12-04T05:25:14.471Z,-4.56
2023-12-04T05:27:41.019Z,-4.63
2023-12-04T05:30:08.031Z,-4.62
2023-12-04T05:32:34.642Z,-4.61
2023-12-04T05:35:01.308Z,-4.60
2023-12-04T05:37:27.729Z,-4.68
2023-12-04T05:39:54.192Z,-4.62
2023-12-04T05:42:20.648Z,-4.50
2023-12-04T05:44:47.166Z,-4.42
2023-12-04T05:47:13.620Z,-4.41
2023-12-04T05:49:40.125Z,-4.40
2023-12-04T05:52:07.020Z,-4.41
2023-12-04T05:54:33.507Z,-4.29
2023-12-04T05:56:59.911Z,-4.25
2023-12-04T05:59:26.527Z,-4.36
2023-12-04T06:01:52.993Z,-4.39
2023-12-04T06:04:19.443Z,-4.31
2023-12-04T06:06:45.895Z,-4.24
2023-12-04T06:09:12.436Z,-4.20
2023-12-04T06:11:38.869Z,-4.16
2023-12-04T06:14:05.338Z,-4.13
2023-12-04T06:16:31.922Z,-4.08
2023-12-04T06:18:58.445Z,-3.97
2023-12-04T06:21:24.943Z,-3.88
2023-12-04T06:23:51.708Z,-3.84
2023-12-04T06:26:18.529Z,-4.00
2023-12-04T06:28:46.141Z,-3.93
2023-12-04T06:31:13.401Z,-3.91
2023-12-04T06:33:40.132Z,-3.87
2023-12-04T06:36:08.211Z,-3.83
2023-12-04T06:38:41.187Z,-3.79
2023-12-04T06:41:09.119Z,-3.84
2023-12-04T06:43:35.983Z,-3.71
2023-12-04T06:46:03.314Z,-3.66
2023-12-04T06:48:33.417Z,-3.58
2023-12-04T06:51:00.442Z,-3.69
2023-12-04T06:53:26.980Z,-3.66
2023-12-04T06:55:53.438Z,-3.62
2023-12-04T06:58:20.253Z,-3.54
2023-12-04T07:00:46.841Z,-3.56
2023-12-04T07:03:13.406Z,-3.54
2023-12-04T07:05:39.981Z,-3.58
2023-12-04T07:08:06.785Z,-3.58
2023-12-04T07:10:35.391Z,-3.56
2023-12-04T07:13:02.230Z,-3.50
2023-12-04T07:15:28.829Z,-3.39
2023-12-04T07:17:56.783Z,-3.28
2023-12-04T07:20:25.038Z,-3.19
2023-12-04T07:22:52.380Z,-3.06
2023-12-04T07:25:19.033Z,-3.07
2023-12-04T07:27:45.666Z,-3.04
2023-12-04T07:30:12.416Z,-2.93
2023-12-04T07:32:38.969Z,-2.78
2023-12-04T07:35:06.357Z,-2.76
2023-12-04T07:37:33.267Z,-2.69
2023-12-04T07:39:59.990Z,-2.72
2023-12-04T07:42:26.779Z,-2.70
2023-12-04T07:44:53.248Z,-2.64
2023-12-04T07:47:19.837Z,-2.51
2023-12-04T07:49:46.564Z,-2.62
2023-12-04T07:52:13.276Z,-2.48
2023-12-04T07:54:40.247Z,-2.34
2023-12-04T07:57:06.820Z,-2.32
2023-12-04T07:59:33.263Z,-2.21
2023-12-04T08:01:59.896Z,-2.22
2023-12-04T08:04:26.452Z,-2.16
2023-12-04T08:06:53.190Z,-2.26
2023-12-04T08:09:19.665Z,-2.24
2023-12-04T08:11:46.553Z,-2.32
2023-12-04T08:14:13.163Z,-2.11
2023-12-04T08:16:39.875Z,-2.25
2023-12-04T08:19:06.392Z,-2.20
2023-12-04T08:21:33.294Z,-2.10
2023-12-04T08:23:59.807Z,-2.13
2023-12-04T08:26:26.627Z,-2.14
2023-12-04T08:28:53.601Z,-2.07
2023-12-04T08:31:20.361Z,-2.10
2023-12-04T08:33:47.124Z,-2.05
2023-12-04T08:36:13.785Z,-1.82
2023-12-04T08:38:40.336Z,-1.81
2023-12-04T08:41:07.437Z,-1.87
2023-12-04T08:43:33.959Z,-1.90
2023-12-04T08:46:01.766Z,-1.82
2023-12-04T08:48:28.422Z,-1.78
2023-12-04T08:50:55.732Z,-1.72
2023-12-04T08:53:22.453Z,-1.73
2023-12-04T08:55:48.968Z,-1.62
2023-12-04T08:58:15.821Z,-1.48
2023-12-04T09:00:44.656Z,-1.38
2023-12-04T09:03:18.093Z,-1.25
2023-12-04T09:05:51.637Z,-1.10
2023-12-04T09:08:31.693Z,-0.97
2023-12-04T09:11:18.227Z,-0.85
2023-12-04T09:13:49.507Z,-0.60
2023-12-04T09:16:16.057Z,-0.51
2023-12-04T09:18:42.685Z,-0.33
2023-12-04T09:21:09.584Z,-0.27
2023-12-04T09:23:36.737Z,-0.07
2023-12-04T09:26:03.639Z,-0.02
2023-12-04T09:28:30.363Z,-0.03
2023-12-04T09:30:57.749Z,-0.03
2023-12-04T09:33:24.360Z,0.07
2023-12-04T09:35:50.963Z,0.07
2023-12-04T09:38:17.731Z,0.10
2023-12-04T09:40:44.329Z,0.16
2023-12-04T09:43:11.825Z,0.14
2023-12-04T09:45:39.997Z,0.07
2023-12-04T09:48:07.799Z,-0.20
2023-12-04T09:50:34.789Z,-0.06
2023-12-04T09:53:03.563Z,0.05
2023-12-04T09:55:30.062Z,-0.01
2023-12-04T09:57:57.913Z,0.26
2023-12-04T10:00:25.404Z,0.25
2023-12-04T10:02:53.373Z,0.26
2023-12-04T10:05:19.971Z,0.09
2023-12-04T10:07:47.001Z,0.13
2023-12-04T10:10:15.503Z,0.14
2023-12-04T10:12:44.559Z,-0.04
2023-12-04T10:15:13.337Z,0.24
2023-12-04T10:17:41.757Z,0.33
2023-12-04T10:20:13.438Z,0.49
2023-12-04T10:22:57.814Z,0.72
2023-12-04T10:25:27.209Z,0.70
2023-12-04T10:27:55.308Z,0.53
2023-12-04T10:30:29.915Z,0.60
2023-12-04T10:33:04.202Z,0.62
2023-12-04T10:35:33.811Z,0.53
2023-12-04T10:38:00.896Z,0.63
2023-12-04T10:40:28.786Z,0.88
2023-12-04T10:43:12.160Z,1.27
2023-12-04T10:45:43.508Z,1.22
2023-12-04T10:48:12.785Z,1.53
2023-12-04T10:50:41.095Z,1.70
2023-12-04T10:53:13.441Z,1.87
2023-12-04T10:55:41.471Z,2.08
2023-12-04T10:58:16.674Z,2.39
2023-12-04T11:00:47.659Z,2.25
2023-12-04T11:03:39.232Z,2.32
2023-12-04T11:06:10.417Z,2.32
2023-12-04T11:08:38.105Z,2.05
2023-12-04T11:11:13.006Z,2.02
2023-12-04T11:13:42.904Z,2.02
2023-12-04T11:16:19.564Z,1.93
2023-12-04T11:19:13.335Z,2.00
2023-12-04T11:21:40.809Z,2.31
2023-12-04T11:24:09.213Z,2.39
2023-12-04T11:26:37.139Z,2.47
2023-12-04T11:29:04.942Z,2.69
2023-12-04T11:31:32.220Z,3.07
2023-12-04T11:34:05.794Z,3.38
2023-12-04T11:36:32.399Z,3.20
2023-12-04T11:38:58.985Z,3.16
2023-12-04T11:41:27.764Z,3.15
2023-12-04T11:43:57.485Z,3.09
2023-12-04T11:46:29.125Z,3.04
2023-12-04T11:49:12.471Z,3.01
2023-12-04T11:51:48.286Z,3.13
2023-12-04T11:54:16.509Z,3.11
2023-12-04T11:57:20.332Z,3.28
2023-12-04T11:59:46.861Z,3.30
2023-12-04T12:02:13.391Z,3.37
2023-12-04T12:04:40.296Z,3.61
2023-12-04T12:07:08.925Z,3.76
2023-12-04T12:09:36.240Z,3.86
2023-12-04T12:12:03.887Z,3.97
2023-12-04T12:14:31.181Z,3.88
2023-12-04T12:17:00.833Z,3.71
2023-12-04T12:19:27.778Z,3.68
2023-12-04T12:21:54.386Z,3.40
2023-12-04T12:24:20.925Z,3.26
2023-12-04T12:26:48.491Z,3.12
2023-12-04T12:29:15.024Z,3.01
2023-12-04T12:31:41.456Z,3.02
2023-12-04T12:34:08.115Z,2.95
2023-12-04T12:36:35.368Z,3.03
2023-12-04T12:39:04.867Z,3.03
2023-12-04T12:41:32.336Z,2.82
2023-12-04T12:43:58.917Z,2.80
2023-12-04T12:46:25.502Z,2.74
2023-12-04T12:48:52.641Z,2.74
2023-12-04T12:51:19.754Z,2.95
2023-12-04T12:53:50.828Z,3.09
2023-12-04T12:56:19.214Z,3.22
2023-12-04T12:58:45.965Z,3.12
2023-12-04T13:01:13.382Z,3.06
2023-12-04T13:03:40.200Z,3.05
2023-12-04T13:06:07.219Z,2.91
2023-12-04T13:08:33.719Z,3.00
2023-12-04T13:11:01.104Z,3.00
2023-12-04T13:13:28.296Z,2.82
2023-12-04T13:15:55.638Z,2.78
2023-12-04T13:18:22.668Z,2.96
2023-12-04T13:20:49.292Z,2.83
2023-12-04T13:23:15.807Z,3.00
2023-12-04T13:25:42.434Z,2.98
2023-12-04T13:28:12.256Z,3.10
2023-12-04T13:30:46.547Z,3.03
2023-12-04T13:33:13.136Z,2.86
2023-12-04T13:35:39.891Z,2.54
2023-12-04T13:38:15.275Z,2.46
2023-12-04T13:40:42.070Z,2.43
2023-12-04T13:43:27.216Z,2.36
2023-12-04T13:45:54.114Z,2.34
2023-12-04T13:48:22.530Z,2.30
2023-12-04T13:50:51.257Z,2.33
2023-12-04T13:53:21.590Z,2.38
2023-12-04T13:55:50.661Z,2.62
2023-12-04T13:58:36.306Z,2.54
2023-12-04T14:01:12.931Z,2.61
2023-12-04T14:03:39.983Z,2.45
2023-12-04T14:06:07.241Z,2.40
2023-12-04T14:08:34.072Z,2.35
2023-12-04T14:11:00.757Z,2.23
2023-12-04T14:13:28.176Z,2.16
2023-12-04T14:15:55.789Z,2.34
2023-12-04T14:18:24.641Z,2.42
2023-12-04T14:20:52.415Z,2.46
2023-12-04T14:23:20.139Z,2.64
2023-12-04T14:25:48.570Z,2.45
2023-12-04T14:28:17.481Z,2.37
2023-12-04T14:30:48.143Z,2.27
2023-12-04T14:33:15.332Z,2.19
2023-12-04T14:35:44.760Z,2.15
2023-12-04T14:38:11.456Z,2.17
2023-12-04T14:40:38.268Z,2.35
2023-12-04T14:43:06.373Z,2.34
2023-12-04T14:45:32.956Z,2.24
2023-12-04T14:47:59.616Z,2.25
2023-12-04T14:50:26.131Z,2.37
2023-12-04T14:52:55.478Z,2.23
2023-12-04T14:55:25.142Z,2.17
2023-12-04T14:58:13.289Z,2.19
2023-12-04T15:00:58.298Z,2.30
2023-12-04T15:03:24.761Z,2.18
2023-12-04T15:05:54.127Z,2.23
2023-12-04T15:08:47.010Z,2.24
2023-12-04T15:11:13.557Z,2.17
2023-12-04T15:13:51.452Z,2.12
2023-12-04T15:16:27.208Z,2.18
2023-12-04T15:18:54.189Z,2.16
2023-12-04T15:21:23.135Z,2.16
2023-12-04T15:23:50.172Z,2.19
2023-12-04T15:26:18.336Z,2.16
2023-12-04T15:28:46.038Z,2.25
2023-12-04T15:31:13.306Z,2.26
2023-12-04T15:33:39.859Z,2.13
2023-12-04T15:36:08.440Z,2.11
2023-12-04T15:38:35.219Z,2.22
2023-12-04T15:41:02.441Z,2.17
2023-12-04T15:43:28.984Z,2.14
2023-12-04T15:45:55.730Z,2.15
2023-12-04T15:48:22.392Z,2.20
2023-12-04T15:50:48.911Z,2.24
2023-12-04T15:53:15.454Z,2.24
2023-12-04T15:55:41.897Z,2.26
2023-12-04T15:58:08.420Z,2.34
2023-12-04T16:00:35.553Z,2.31
2023-12-04T16:03:02.069Z,2.29
2023-12-04T16:05:28.706Z,2.32
2023-12-04T16:07:55.347Z,2.29
2023-12-04T16:10:22.225Z,2.34
2023-12-04T16:12:49.102Z,2.32
2023-12-04T16:15:18.072Z,2.42
2023-12-04T16:17:44.550Z,2.40
2023-12-04T16:20:12.468Z,2.34
2023-12-04T16:22:43.773Z,2.31
2023-12-04T16:25:11.104Z,2.26
2023-12-04T16:27:39.506Z,2.32
2023-12-04T16:30:07.677Z,2.33
2023-12-04T16:32:34.606Z,2.35
2023-12-04T16:35:02.441Z,2.32
2023-12-04T16:37:29.900Z,2.39
2023-12-04T16:39:56.465Z,2.41
2023-12-04T16:42:23.161Z,2.46
2023-12-04T16:44:49.742Z,2.48
2023-12-04T16:47:16.255Z,2.54
2023-12-04T16:49:43.066Z,2.58
2023-12-04T16:52:09.666Z,2.57
2023-12-04T16:54:36.215Z,2.49
2023-12-04T16:57:02.809Z,2.51
2023-12-04T16:59:29.285Z,2.54
2023-12-04T17:01:55.914Z,2.49
2023-12-04T17:04:23.079Z,2.53
2023-12-04T17:06:49.991Z,2.45
2023-12-04T17:09:16.758Z,2.45
2023-12-04T17:11:43.928Z,2.35
2023-12-04T17:14:11.427Z,2.32
2023-12-04T17:16:38.005Z,2.34
2023-12-04T17:19:04.719Z,2.36
2023-12-04T17:21:31.215Z,2.44
2023-12-04T17:23:57.886Z,2.46
2023-12-04T17:26:24.844Z,2.37
2023-12-04T17:28:51.843Z,2.34
2023-12-04T17:31:18.424Z,2.35
2023-12-04T17:33:45.561Z,2.22
2023-12-04T17:36:12.465Z,2.12
2023-12-04T17:38:39.189Z,2.05
2023-12-04T17:41:05.784Z,2.02
2023-12-04T17:43:33.851Z,1.99
2023-12-04T17:46:00.455Z,1.94
2023-12-04T17:48:27.337Z,1.84
2023-12-04T17:50:54.053Z,1.75
2023-12-04T17:53:21.053Z,1.73
2023-12-04T17:55:47.667Z,1.55
2023-12-04T17:58:17.250Z,1.41
2023-12-04T18:00:44.446Z,1.32
2023-12-04T18:03:11.469Z,1.18
2023-12-04T18:05:38.522Z,1.16
2023-12-04T18:08:05.352Z,1.10
2023-12-04T18:10:32.346Z,1.08
2023-12-04T18:12:58.854Z,1.05
2023-12-04T18:15:25.367Z,0.96
2023-12-04T18:17:52.039Z,0.87
2023-12-04T18:20:18.642Z,0.92
2023-12-04T18:22:45.853Z,0.89
2023-12-04T18:25:13.604Z,0.85
2023-12-04T18:27:40.901Z,0.85
2023-12-04T18:30:09.284Z,0.85
2023-12-04T18:32:36.233Z,0.88
2023-12-04T18:35:03.376Z,0.89
2023-12-04T18:37:36.303Z,0.91
2023-12-04T18:40:08.007Z,1.18
2023-12-04T18:42:34.934Z,1.21
2023-12-04T18:45:01.701Z,1.30
2023-12-04T18:47:29.461Z,1.38
2023-12-04T18:49:58.251Z,1.51
2023-12-04T18:52:25.101Z,1.50
2023-12-04T18:54:51.696Z,1.51
2023-12-04T18:57:18.318Z,1.66
2023-12-04T18:59:44.769Z,1.56
2023-12-04T19:02:11.336Z,1.48
2023-12-04T19:04:38.593Z,1.38
2023-12-04T19:07:05.643Z,1.37
2023-12-04T19:09:32.347Z,1.31
2023-12-04T19:11:58.950Z,1.25
2023-12-04T19:14:25.426Z,1.20
2023-12-04T19:16:51.917Z,1.17
2023-12-04T19:19:18.510Z,1.09
2023-12-04T19:21:45.042Z,1.03
2023-12-04T19:24:11.629Z,1.02
2023-12-04T19:26:38.167Z,1.00
2023-12-04T19:29:04.588Z,0.93
2023-12-04T19:31:31.016Z,0.91
2023-12-04T19:33:57.677Z,0.97
2023-12-04T19:36:24.197Z,1.03
2023-12-04T19:38:50.808Z,1.09
2023-12-04T19:41:17.817Z,1.16
2023-12-04T19:43:44.718Z,1.22
2023-12-04T19:46:11.202Z,1.23
2023-12-04T19:48:37.830Z,1.27
2023-12-04T19:51:05.645Z,1.29
2023-12-04T19:53:32.055Z,1.37
2023-12-04T19:55:58.504Z,1.53
2023-12-04T19:58:24.986Z,1.45
2023-12-04T20:00:51.464Z,1.41
2023-12-04T20:03:18.137Z,1.52
2023-12-04T20:05:44.998Z,1.48
2023-12-04T20:08:11.616Z,1.49
2023-12-04T20:10:39.359Z,1.54
2023-12-04T20:13:08.134Z,1.65
2023-12-04T20:15:34.880Z,1.69
2023-12-04T20:18:02.280Z,1.78
2023-12-04T20:20:29.392Z,1.89
2023-12-04T20:22:56.061Z,1.87
2023-12-04T20:25:26.871Z,1.96
2023-12-04T20:27:53.665Z,2.00
2023-12-04T20:30:20.097Z,1.91
2023-12-04T20:32:46.666Z,1.90
2023-12-04T20:35:13.146Z,1.94
2023-12-04T20:37:42.067Z,1.96
2023-12-04T20:40:10.431Z,2.02
2023-12-04T20:42:37.689Z,2.05
2023-12-04T20:45:05.707Z,2.07
2023-12-04T20:47:33.506Z,2.06
2023-12-04T20:50:00.165Z,2.11
2023-12-04T20:52:27.016Z,2.08
2023-12-04T20:54:53.555Z,2.04
2023-12-04T20:57:20.306Z,2.14
2023-12-04T20:59:46.754Z,2.25
2023-12-04T21:02:13.259Z,2.37
2023-12-04T21:04:40.651Z,2.33
2023-12-04T21:07:07.875Z,2.32
2023-12-04T21:09:36.531Z,2.37
2023-12-04T21:12:03.450Z,2.41
2023-12-04T21:14:29.994Z,2.39
2023-12-04T21:17:01.299Z,2.41
2023-12-04T21:19:29.396Z,2.47
2023-12-04T21:21:56.127Z,2.54
2023-12-04T21:24:22.632Z,2.57
2023-12-04T21:26:49.196Z,2.47
2023-12-04T21:29:15.698Z,2.52
2023-12-04T21:31:42.137Z,2.43
2023-12-04T21:34:09.415Z,2.46
2023-12-04T21:36:35.969Z,2.47
2023-12-04T21:39:02.695Z,2.42
2023-12-04T21:41:29.161Z,2.51
2023-12-04T21:43:56.189Z,2.60
2023-12-04T21:46:22.749Z,2.63
2023-12-04T21:48:49.378Z,2.53
2023-12-04T21:51:16.117Z,2.64
2023-12-04T21:53:42.581Z,2.64
2023-12-04T21:56:09.290Z,2.63
2023-12-04T21:58:35.766Z,2.70
2023-12-04T22:01:02.248Z,2.59
2023-12-04T22:03:28.931Z,2.54
2023-12-04T22:05:55.680Z,2.64
2023-12-04T22:08:23.114Z,2.63
2023-12-04T22:10:49.906Z,2.63
2023-12-04T22:13:16.393Z,2.56
2023-12-04T22:15:42.898Z,2.58
2023-12-04T22:18:09.673Z,2.57
2023-12-04T22:20:36.221Z,2.53
2023-12-04T22:23:02.925Z,2.52
2023-12-04T22:25:29.440Z,2.52
2023-12-04T22:27:56.165Z,2.54
2023-12-04T22:30:23.386Z,2.50
2023-12-04T22:32:50.289Z,2.47
2023-12-04T22:35:16.768Z,2.51
2023-12-04T22:37:43.770Z,2.61
2023-12-04T22:40:10.818Z,2.70
2023-12-04T22:42:37.630Z,2.71
2023-12-04T22:45:05.364Z,2.75
2023-12-04T22:47:31.868Z,2.75
2023-12-04T22:49:58.296Z,2.74
2023-12-04T22:52:24.833Z,2.80
2023-12-04T22:54:51.375Z,2.81
2023-12-04T22:57:17.839Z,2.88
2023-12-04T22:59:44.381Z,2.94
2023-12-04T23:02:10.873Z,2.94
2023-12-04T23:04:39.153Z,2.87
2023-12-04T23:07:06.892Z,2.85
2023-12-04T23:09:34.216Z,2.88
2023-12-04T23:12:00.765Z,3.04
2023-12-04T23:14:28.980Z,3.02
2023-12-04T23:16:55.536Z,3.00
2023-12-04T23:19:22.190Z,3.04
2023-12-04T23:21:49.022Z,3.08
2023-12-04T23:24:15.727Z,3.13
2023-12-04T23:26:42.212Z,3.16
2023-12-04T23:29:08.808Z,3.13
2023-12-04T23:31:35.326Z,3.23
2023-12-04T23:34:02.465Z,3.06
2023-12-04T23:36:29.124Z,3.09
2023-12-04T23:38:55.668Z,3.12
2023-12-04T23:41:22.317Z,3.09
2023-12-04T23:43:48.971Z,3.11
2023-12-04T23:46:15.508Z,3.13
2023-12-04T23:48:42.489Z,3.16
2023-12-04T23:51:09.216Z,3.16
2023-12-04T23:53:35.780Z,3.15
2023-12-04T23:56:02.463Z,3.17
2023-12-04T23:58:28.888Z,3.14
